Wetterstation Vordersexau
Wetterdaten: Woche 01.06.15 - 07.06.15 (KW23)
Datum Zeit Temp. A. Feuchte A. Luftdruck Regen Wind Richtung Taupunkt Windchill Windben
01.06.2015 00:00 12,9 C 77 % 1013,3 hPa 0,0 l/m 0,0 km/h NO 9,0 C 12,9 C 0,0 km/h
01.06.2015 01:00 13,0 C 79 % 1013,1 hPa 0,0 l/m 0,0 km/h NO 9,4 C 13,0 C 0,0 km/h
01.06.2015 02:00 13,3 C 79 % 1013,5 hPa 0,0 l/m 0,0 km/h NO 9,7 C 13,3 C 0,0 km/h
01.06.2015 03:00 13,9 C 80 % 1013,6 hPa 0,0 l/m 0,0 km/h NO 10,5 C 13,9 C 0,0 km/h
01.06.2015 04:00 14,4 C 80 % 1013,6 hPa 0,0 l/m 0,0 km/h S-SW 11,0 C 14,4 C 0,0 km/h
01.06.2015 05:00 16,6 C 73 % 1013,6 hPa 0,0 l/m 0,0 km/h S-SW 11,7 C 16,6 C 0,0 km/h
01.06.2015 06:00 17,1 C 72 % 1014,1 hPa 0,0 l/m 1,9 km/h S-SW 12,0 C 17,1 C 1,1 km/h
01.06.2015 07:00 18,9 C 70 % 1014,1 hPa 0,0 l/m 0,0 km/h SW 13,3 C 18,9 C 0,0 km/h
01.06.2015 08:00 20,1 C 65 % 1014,2 hPa 0,0 l/m 3,2 km/h S 13,3 C 20,1 C 1,8 km/h
01.06.2015 09:00 20,2 C 63 % 1014,3 hPa 0,0 l/m 20,7 km/h SW 12,9 C 16,3 C 11,5 km/h
01.06.2015 10:00 22,3 C 58 % 1014,4 hPa 0,0 l/m 22,0 km/h W-SW 13,6 C 18,9 C 12,2 km/h
01.06.2015 11:00 20,6 C 63 % 1014,7 hPa 0,0 l/m 3,2 km/h SW 13,3 C 20,6 C 1,8 km/h
01.06.2015 12:00 21,4 C 63 % 1014,9 hPa 0,0 l/m 22,7 km/h SW 14,1 C 17,6 C 12,6 km/h
01.06.2015 13:00 19,1 C 70 % 1015,0 hPa 0,0 l/m 5,8 km/h N-NW 13,5 C 19,1 C 3,2 km/h
01.06.2015 14:00 18,8 C 70 % 1015,2 hPa 0,0 l/m 0,0 km/h S 13,2 C 18,8 C 0,0 km/h
01.06.2015 15:00 18,4 C 75 % 1014,9 hPa 0,0 l/m 3,9 km/h S-SO 13,9 C 18,4 C 2,2 km/h
01.06.2015 16:00 19,6 C 70 % 1015,0 hPa 0,0 l/m 0,0 km/h W-NW 14,0 C 19,6 C 0,0 km/h
01.06.2015 17:00 18,3 C 72 % 1015,5 hPa 0,0 l/m 0,0 km/h N 13,2 C 18,3 C 0,0 km/h
01.06.2015 18:00 24,5 C 54 % 1015,3 hPa 0,0 l/m 0,0 km/h W-NW 14,6 C 24,5 C 0,0 km/h
01.06.2015 19:00 19,6 C 63 % 1014,6 hPa 0,0 l/m 1,9 km/h W-NW 12,4 C 19,6 C 1,1 km/h
01.06.2015 20:00 15,8 C 76 % 1014,8 hPa 0,0 l/m 0,0 km/h W-NW 11,6 C 15,8 C 0,0 km/h
01.06.2015 21:00 13,3 C 80 % 1015,3 hPa 0,0 l/m 0,0 km/h W-NW 9,9 C 13,3 C 0,0 km/h
01.06.2015 22:00 12,8 C 83 % 1015,5 hPa 0,0 l/m 0,0 km/h S-SO 10,0 C 12,8 C 0,0 km/h
01.06.2015 23:00 12,4 C 84 % 1015,8 hPa 0,0 l/m 0,0 km/h NO 9,8 C 12,4 C 0,0 km/h
02.06.2015 00:00 12,2 C 84 % 1015,7 hPa 0,0 l/m 0,0 km/h NO 9,6 C 12,2 C 0,0 km/h
02.06.2015 01:00 11,3 C 83 % 1016,0 hPa 0,0 l/m 0,0 km/h NO 8,5 C 11,3 C 0,0 km/h
02.06.2015 02:00 12,3 C 83 % 1015,4 hPa 0,0 l/m 0,0 km/h NO 9,5 C 12,3 C 0,0 km/h
02.06.2015 03:00 12,8 C 83 % 1015,4 hPa 0,0 l/m 0,0 km/h NO 10,0 C 12,8 C 0,0 km/h
02.06.2015 04:00 12,6 C 84 % 1015,0 hPa 0,0 l/m 0,0 km/h NO 10,0 C 12,6 C 0,0 km/h
02.06.2015 05:00 12,9 C 83 % 1015,4 hPa 0,0 l/m 0,0 km/h NO 10,1 C 12,9 C 0,0 km/h
02.06.2015 06:00 13,8 C 84 % 1015,5 hPa 0,0 l/m 0,0 km/h O-NO 11,1 C 13,8 C 0,0 km/h
02.06.2015 07:00 16,1 C 84 % 1016,0 hPa 0,0 l/m 0,0 km/h SW 13,4 C 16,1 C 0,0 km/h
02.06.2015 08:00 23,3 C 62 % 1016,3 hPa 0,0 l/m 8,4 km/h W-SW 15,6 C 22,7 C 4,7 km/h
02.06.2015 09:00 22,0 C 61 % 1016,7 hPa 0,0 l/m 11,0 km/h S-SW 14,1 C 20,6 C 6,1 km/h
02.06.2015 10:00 24,1 C 56 % 1016,6 hPa 0,0 l/m 23,3 km/h W-SW 14,8 C 21,1 C 13,0 km/h
02.06.2015 11:00 21,6 C 61 % 1016,8 hPa 0,0 l/m 25,3 km/h NW 13,7 C 17,5 C 14,0 km/h
02.06.2015 12:00 24,7 C 56 % 1016,5 hPa 0,0 l/m 22,0 km/h W-SW 15,3 C 22,1 C 12,2 km/h
02.06.2015 13:00 25,4 C 53 % 1016,2 hPa 0,0 l/m 24,6 km/h S-SW 15,1 C 22,7 C 13,7 km/h
02.06.2015 14:00 27,7 C 48 % 1015,8 hPa 0,0 l/m 3,2 km/h W 15,7 C 27,7 C 1,8 km/h
02.06.2015 15:00 27,8 C 44 % 1015,3 hPa 0,0 l/m 22,7 km/h W-NW 14,4 C 26,1 C 12,6 km/h
02.06.2015 16:00 28,9 C 37 % 1015,3 hPa 0,0 l/m 18,8 km/h W-NW 12,7 C 27,8 C 10,4 km/h
02.06.2015 17:00 29,9 C 34 % 1015,4 hPa 0,0 l/m 25,3 km/h W-SW 12,3 C 28,8 C 14,0 km/h
02.06.2015 18:00 29,2 C 35 % 1015,4 hPa 0,0 l/m 24,0 km/h SW 12,1 C 27,9 C 13,3 km/h
02.06.2015 19:00 24,8 C 41 % 1015,5 hPa 0,0 l/m 22,7 km/h SW 10,6 C 22,1 C 12,6 km/h
02.06.2015 20:00 22,8 C 47 % 1015,8 hPa 0,0 l/m 0,0 km/h S 10,9 C 22,8 C 0,0 km/h
02.06.2015 21:00 18,5 C 57 % 1016,3 hPa 0,0 l/m 0,0 km/h NO 9,8 C 18,5 C 0,0 km/h
02.06.2015 22:00 16,9 C 68 % 1016,6 hPa 0,0 l/m 1,3 km/h NO 11,0 C 16,9 C 0,7 km/h
02.06.2015 23:00 15,3 C 73 % 1016,9 hPa 0,0 l/m 0,0 km/h O 10,5 C 15,3 C 0,0 km/h
03.06.2015 00:00 14,9 C 75 % 1017,1 hPa 0,0 l/m 0,0 km/h O 10,5 C 14,9 C 0,0 km/h
03.06.2015 01:00 14,1 C 77 % 1017,2 hPa 0,0 l/m 0,0 km/h O-SO 10,1 C 14,1 C 0,0 km/h
03.06.2015 02:00 13,8 C 79 % 1017,3 hPa 0,0 l/m 0,0 km/h SO 10,2 C 13,8 C 0,0 km/h
03.06.2015 03:00 12,9 C 81 % 1017,8 hPa 0,0 l/m 0,0 km/h SO 9,7 C 12,9 C 0,0 km/h
03.06.2015 04:00 12,1 C 83 % 1018,2 hPa 0,0 l/m 0,0 km/h SO 9,3 C 12,1 C 0,0 km/h
03.06.2015 05:00 12,0 C 84 % 1018,5 hPa 0,0 l/m 0,0 km/h SO 9,4 C 12,0 C 0,0 km/h
03.06.2015 06:00 13,1 C 84 % 1019,0 hPa 0,0 l/m 0,0 km/h O-NO 10,5 C 13,1 C 0,0 km/h
03.06.2015 07:00 19,7 C 78 % 1019,2 hPa 0,0 l/m 0,0 km/h N-NO 15,8 C 19,7 C 0,0 km/h
03.06.2015 08:00 27,9 C 47 % 1019,9 hPa 0,0 l/m 0,0 km/h SW 15,5 C 27,9 C 0,0 km/h
03.06.2015 09:00 27,5 C 40 % 1020,1 hPa 0,0 l/m 7,8 km/h S-SW 12,7 C 27,3 C 4,3 km/h
03.06.2015 10:00 27,7 C 37 % 1020,2 hPa 0,0 l/m 11,7 km/h W 11,7 C 26,9 C 6,5 km/h
03.06.2015 11:00 28,0 C 33 % 1020,3 hPa 0,0 l/m 13,0 km/h SW 10,2 C 27,1 C 7,2 km/h
03.06.2015 12:00 28,3 C 34 % 1019,9 hPa 0,0 l/m 20,1 km/h W-SW 10,9 C 26,9 C 11,2 km/h
03.06.2015 13:00 29,2 C 30 % 1019,8 hPa 0,0 l/m 0,0 km/h W 9,8 C 29,2 C 0,0 km/h
03.06.2015 14:00 30,6 C 29 % 1019,9 hPa 0,0 l/m 3,9 km/h S-SO 10,5 C 30,6 C 2,2 km/h
03.06.2015 15:00 29,8 C 33 % 1019,6 hPa 0,0 l/m 0,0 km/h W-NW 11,8 C 29,8 C 0,0 km/h
03.06.2015 16:00 31,9 C 29 % 1019,6 hPa 0,0 l/m 10,4 km/h W-NW 11,6 C 31,8 C 5,8 km/h
03.06.2015 17:00 35,3 C 25 % 1019,3 hPa 0,0 l/m 5,8 km/h N-NO 12,2 C 35,3 C 3,2 km/h
03.06.2015 18:00 31,8 C 35 % 1019,3 hPa 0,0 l/m 0,0 km/h N-NO 14,4 C 31,8 C 0,0 km/h
03.06.2015 19:00 25,6 C 48 % 1019,8 hPa 0,0 l/m 0,0 km/h N-NO 13,8 C 25,6 C 0,0 km/h
03.06.2015 20:00 23,2 C 54 % 1020,7 hPa 0,0 l/m 0,0 km/h N-NO 13,4 C 23,2 C 0,0 km/h
03.06.2015 21:00 19,3 C 62 % 1021,5 hPa 0,0 l/m 0,0 km/h O-NO 11,8 C 19,3 C 0,0 km/h
03.06.2015 22:00 18,3 C 65 % 1022,3 hPa 0,0 l/m 0,0 km/h O-NO 11,6 C 18,3 C 0,0 km/h
03.06.2015 23:00 15,4 C 72 % 1022,8 hPa 0,0 l/m 0,0 km/h O-NO 10,4 C 15,4 C 0,0 km/h
04.06.2015 00:00 13,5 C 76 % 1022,8 hPa 0,0 l/m 0,0 km/h O-NO 9,4 C 13,5 C 0,0 km/h
04.06.2015 01:00 13,5 C 81 % 1022,7 hPa 0,0 l/m 0,0 km/h O 10,3 C 13,5 C 0,0 km/h
04.06.2015 02:00 12,3 C 82 % 1022,9 hPa 0,0 l/m 0,0 km/h O-SO 9,3 C 12,3 C 0,0 km/h
04.06.2015 03:00 11,9 C 84 % 1022,9 hPa 0,0 l/m 0,0 km/h O-SO 9,3 C 11,9 C 0,0 km/h
04.06.2015 04:00 10,7 C 84 % 1022,8 hPa 0,0 l/m 0,0 km/h O-SO 8,1 C 10,7 C 0,0 km/h
04.06.2015 05:00 10,3 C 84 % 1023,0 hPa 0,0 l/m 0,0 km/h O-SO 7,7 C 10,3 C 0,0 km/h
04.06.2015 06:00 11,6 C 84 % 1023,2 hPa 0,0 l/m 0,0 km/h N 9,0 C 11,6 C 0,0 km/h
04.06.2015 07:00 17,3 C 83 % 1023,2 hPa 0,0 l/m 0,0 km/h W-NW 14,4 C 17,3 C 0,0 km/h
04.06.2015 08:00 23,9 C 59 % 1023,0 hPa 0,0 l/m 0,0 km/h NW 15,4 C 23,9 C 0,0 km/h
04.06.2015 09:00 25,5 C 53 % 1022,7 hPa 0,0 l/m 0,0 km/h W-NW 15,2 C 25,5 C 0,0 km/h
04.06.2015 10:00 25,9 C 53 % 1022,5 hPa 0,0 l/m 1,3 km/h W-NW 15,6 C 25,9 C 0,7 km/h
04.06.2015 11:00 26,6 C 53 % 1022,1 hPa 0,0 l/m 0,0 km/h W 16,2 C 26,6 C 0,0 km/h
04.06.2015 12:00 27,6 C 53 % 1021,7 hPa 0,0 l/m 0,0 km/h W 17,1 C 27,6 C 0,0 km/h
04.06.2015 13:00 28,9 C 50 % 1021,0 hPa 0,0 l/m 7,1 km/h NW 17,4 C 28,8 C 4,0 km/h
04.06.2015 14:00 30,5 C 45 % 1020,4 hPa 0,0 l/m 22,0 km/h NW 17,2 C 29,7 C 12,2 km/h
04.06.2015 15:00 30,5 C 44 % 1019,9 hPa 0,0 l/m 0,0 km/h NW 16,8 C 30,5 C 0,0 km/h
04.06.2015 16:00 32,9 C 38 % 1019,4 hPa 0,0 l/m 1,9 km/h NW 16,7 C 32,9 C 1,1 km/h
04.06.2015 17:00 35,3 C 34 % 1018,7 hPa 0,0 l/m 0,6 km/h N-NO 17,0 C 35,3 C 0,4 km/h
04.06.2015 18:00 35,3 C 34 % 1018,4 hPa 0,0 l/m 1,9 km/h N-NO 17,0 C 35,3 C 1,1 km/h
04.06.2015 19:00 28,7 C 45 % 1018,3 hPa 0,0 l/m 3,2 km/h N-NO 15,6 C 28,7 C 1,8 km/h
04.06.2015 20:00 25,7 C 54 % 1018,3 hPa 0,0 l/m 0,0 km/h O-SO 15,7 C 25,7 C 0,0 km/h
04.06.2015 21:00 21,1 C 69 % 1018,7 hPa 0,0 l/m 0,0 km/h S-SO 15,2 C 21,1 C 0,0 km/h
04.06.2015 22:00 19,6 C 73 % 1019,0 hPa 0,0 l/m 0,0 km/h S-SO 14,6 C 19,6 C 0,0 km/h
04.06.2015 23:00 17,5 C 78 % 1018,8 hPa 0,0 l/m 0,0 km/h SO 13,6 C 17,5 C 0,0 km/h
05.06.2015 00:00 16,9 C 81 % 1018,7 hPa 0,0 l/m 0,0 km/h SO 13,6 C 16,9 C 0,0 km/h
05.06.2015 01:00 15,9 C 82 % 1018,6 hPa 0,0 l/m 0,0 km/h SO 12,8 C 15,9 C 0,0 km/h
05.06.2015 02:00 15,2 C 83 % 1018,5 hPa 0,0 l/m 0,0 km/h O 12,3 C 15,2 C 0,0 km/h
05.06.2015 03:00 14,7 C 83 % 1018,6 hPa 0,0 l/m 0,0 km/h O 11,8 C 14,7 C 0,0 km/h
05.06.2015 04:00 14,3 C 84 % 1018,5 hPa 0,0 l/m 0,0 km/h O 11,6 C 14,3 C 0,0 km/h
05.06.2015 05:00 13,8 C 84 % 1018,6 hPa 0,0 l/m 0,0 km/h O 11,1 C 13,8 C 0,0 km/h
05.06.2015 06:00 15,2 C 83 % 1018,3 hPa 0,0 l/m 0,0 km/h SO 12,3 C 15,2 C 0,0 km/h
05.06.2015 07:00 21,5 C 82 % 1018,3 hPa 0,0 l/m 0,0 km/h N-NW 18,3 C 21,5 C 0,0 km/h
05.06.2015 08:00 29,2 C 52 % 1018,4 hPa 0,0 l/m 3,2 km/h N 18,3 C 29,2 C 1,8 km/h
05.06.2015 09:00 31,1 C 46 % 1018,3 hPa 0,0 l/m 0,0 km/h W-NW 18,1 C 31,1 C 0,0 km/h
05.06.2015 10:00 31,8 C 46 % 1018,2 hPa 0,0 l/m 0,0 km/h W-SW 18,7 C 31,8 C 0,0 km/h
05.06.2015 11:00 31,7 C 47 % 1017,8 hPa 0,0 l/m 0,0 km/h N-NO 19,0 C 31,7 C 0,0 km/h
05.06.2015 12:00 32,4 C 46 % 1017,4 hPa 0,0 l/m 7,1 km/h W-SW 19,3 C 32,4 C 4,0 km/h
05.06.2015 13:00 34,6 C 43 % 1016,8 hPa 0,0 l/m 0,0 km/h W-SW 20,2 C 34,6 C 0,0 km/h
05.06.2015 14:00 35,3 C 39 % 1016,6 hPa 0,0 l/m 0,0 km/h NW 19,2 C 35,3 C 0,0 km/h
05.06.2015 15:00 35,1 C 40 % 1015,9 hPa 0,0 l/m 0,0 km/h W-NW 19,4 C 35,1 C 0,0 km/h
05.06.2015 16:00 37,3 C 36 % 1015,2 hPa 0,0 l/m 2,6 km/h W-NW 19,7 C 37,3 C 1,4 km/h
05.06.2015 17:00 39,8 C 31 % 1014,5 hPa 0,0 l/m 0,0 km/h W-NW 19,4 C 39,8 C 0,0 km/h
05.06.2015 18:00 38,9 C 28 % 1014,2 hPa 0,0 l/m 1,9 km/h W-NW 17,0 C 38,9 C 1,1 km/h
05.06.2015 19:00 31,9 C 40 % 1014,0 hPa 0,0 l/m 0,0 km/h W-NW 16,6 C 31,9 C 0,0 km/h
05.06.2015 20:00 25,5 C 55 % 1014,4 hPa 0,0 l/m 0,0 km/h W 15,8 C 25,5 C 0,0 km/h
05.06.2015 21:00 22,6 C 61 % 1014,7 hPa 0,0 l/m 0,0 km/h W-SW 14,7 C 22,6 C 0,0 km/h
05.06.2015 22:00 20,9 C 66 % 1015,0 hPa 0,0 l/m 0,0 km/h W-NW 14,3 C 20,9 C 0,0 km/h
05.06.2015 23:00 20,4 C 71 % 1015,1 hPa 0,0 l/m 0,0 km/h S-SO 15,0 C 20,4 C 0,0 km/h
06.06.2015 00:00 19,9 C 74 % 1015,9 hPa 0,0 l/m 0,0 km/h S-SO 15,1 C 19,9 C 0,0 km/h
06.06.2015 01:00 21,8 C 69 % 1018,3 hPa 0,0 l/m 20,7 km/h S-SO 15,9 C 18,4 C 11,5 km/h
06.06.2015 02:00 18,0 C 83 % 1017,9 hPa 6,2 l/m 0,0 km/h SO 15,1 C 18,0 C 0,0 km/h
06.06.2015 03:00 18,2 C 83 % 1016,8 hPa 0,0 l/m 0,0 km/h SO 15,3 C 18,2 C 0,0 km/h
06.06.2015 04:00 17,4 C 83 % 1017,3 hPa 0,0 l/m 0,0 km/h SO 14,5 C 17,4 C 0,0 km/h
06.06.2015 05:00 16,4 C 83 % 1017,5 hPa 0,0 l/m 0,0 km/h NO 13,5 C 16,4 C 0,0 km/h
06.06.2015 06:00 17,1 C 82 % 1017,8 hPa 0,0 l/m 0,0 km/h S-SO 14,0 C 17,1 C 0,0 km/h
06.06.2015 07:00 20,3 C 83 % 1018,1 hPa 0,0 l/m 3,2 km/h N-NO 17,3 C 20,3 C 1,8 km/h
06.06.2015 08:00 29,5 C 61 % 1018,7 hPa 0,0 l/m 0,0 km/h W-NW 21,2 C 29,5 C 0,0 km/h
06.06.2015 09:00 31,9 C 48 % 1018,9 hPa 0,0 l/m 0,0 km/h W 19,5 C 31,9 C 0,0 km/h
06.06.2015 10:00 31,2 C 46 % 1019,4 hPa 0,0 l/m 7,8 km/h W 18,2 C 31,1 C 4,3 km/h
06.06.2015 11:00 30,8 C 48 % 1019,4 hPa 0,0 l/m 6,5 km/h W 18,5 C 30,8 C 3,6 km/h
06.06.2015 12:00 31,9 C 46 % 1019,5 hPa 0,0 l/m 0,0 km/h S-SO 18,8 C 31,9 C 0,0 km/h
06.06.2015 13:00 33,8 C 44 % 1019,3 hPa 0,0 l/m 0,0 km/h N-NO 19,8 C 33,8 C 0,0 km/h
06.06.2015 14:00 34,3 C 37 % 1019,0 hPa 0,0 l/m 0,0 km/h N-NO 17,5 C 34,3 C 0,0 km/h
06.06.2015 15:00 33,9 C 38 % 1018,7 hPa 0,0 l/m 0,0 km/h N 17,5 C 33,9 C 0,0 km/h
06.06.2015 16:00 34,8 C 43 % 1018,7 hPa 0,0 l/m 5,2 km/h N-NO 20,3 C 34,8 C 2,9 km/h
06.06.2015 17:00 31,4 C 50 % 1019,5 hPa 0,0 l/m 10,4 km/h N-NW 19,7 C 31,2 C 5,8 km/h
06.06.2015 18:00 32,3 C 47 % 1019,3 hPa 0,0 l/m 0,0 km/h N-NO 19,5 C 32,3 C 0,0 km/h
06.06.2015 19:00 25,3 C 62 % 1020,1 hPa 0,0 l/m 1,3 km/h N-NO 17,5 C 25,3 C 0,7 km/h
06.06.2015 20:00 24,3 C 65 % 1020,8 hPa 0,0 l/m 0,0 km/h NO 17,3 C 24,3 C 0,0 km/h
06.06.2015 21:00 22,2 C 69 % 1021,4 hPa 0,0 l/m 0,0 km/h NO 16,2 C 22,2 C 0,0 km/h
06.06.2015 22:00 21,1 C 74 % 1021,4 hPa 0,0 l/m 0,0 km/h SO 16,3 C 21,1 C 0,0 km/h
06.06.2015 23:00 20,2 C 79 % 1021,6 hPa 0,0 l/m 0,0 km/h O-NO 16,4 C 20,2 C 0,0 km/h
07.06.2015 00:00 19,8 C 81 % 1022,3 hPa 0,0 l/m 0,0 km/h N-NO 16,4 C 19,8 C 0,0 km/h
07.06.2015 01:00 20,1 C 78 % 1022,3 hPa 0,0 l/m 0,0 km/h O-NO 16,1 C 20,1 C 0,0 km/h
07.06.2015 02:00 18,4 C 79 % 1022,0 hPa 0,0 l/m 0,0 km/h O-NO 14,7 C 18,4 C 0,0 km/h
07.06.2015 03:00 17,0 C 82 % 1021,8 hPa 0,0 l/m 0,0 km/h O-SO 13,9 C 17,0 C 0,0 km/h
07.06.2015 04:00 15,9 C 83 % 1021,8 hPa 0,0 l/m 0,0 km/h SO 13,0 C 15,9 C 0,0 km/h
07.06.2015 05:00 16,3 C 83 % 1022,5 hPa 0,0 l/m 0,0 km/h S-SO 13,4 C 16,3 C 0,0 km/h
07.06.2015 06:00 17,2 C 83 % 1022,4 hPa 0,0 l/m 0,0 km/h S-SW 14,3 C 17,2 C 0,0 km/h
07.06.2015 07:00 20,9 C 80 % 1022,5 hPa 0,0 l/m 0,0 km/h W 17,3 C 20,9 C 0,0 km/h
07.06.2015 08:00 21,9 C 74 % 1022,9 hPa 0,0 l/m 0,0 km/h N-NW 17,0 C 21,9 C 0,0 km/h
07.06.2015 09:00 25,9 C 56 % 1022,8 hPa 0,0 l/m 1,9 km/h W-NW 16,4 C 25,9 C 1,1 km/h
07.06.2015 10:00 27,1 C 54 % 1022,6 hPa 0,0 l/m 9,1 km/h N-NW 17,0 C 26,6 C 5,0 km/h
07.06.2015 11:00 26,8 C 56 % 1022,3 hPa 0,0 l/m 11,7 km/h NW 17,3 C 25,9 C 6,5 km/h
07.06.2015 12:00 27,1 C 55 % 1021,9 hPa 0,0 l/m 0,0 km/h W-SW 17,3 C 27,1 C 0,0 km/h
07.06.2015 13:00 28,7 C 53 % 1021,3 hPa 0,0 l/m 10,4 km/h N 18,2 C 28,2 C 5,8 km/h
07.06.2015 14:00 29,7 C 50 % 1020,8 hPa 0,0 l/m 0,0 km/h N-NO 18,1 C 29,7 C 0,0 km/h
07.06.2015 15:00 29,2 C 51 % 1020,6 hPa 0,0 l/m 0,6 km/h NW 18,0 C 29,2 C 0,4 km/h
07.06.2015 16:00 30,8 C 45 % 1020,6 hPa 0,0 l/m 3,2 km/h N-NO 17,5 C 30,8 C 1,8 km/h
07.06.2015 17:00 31,9 C 43 % 1020,0 hPa 0,0 l/m 0,0 km/h N 17,7 C 31,9 C 0,0 km/h
07.06.2015 18:00 31,7 C 43 % 1019,6 hPa 0,0 l/m 0,0 km/h N 17,6 C 31,7 C 0,0 km/h
07.06.2015 19:00 26,9 C 50 % 1019,7 hPa 0,0 l/m 0,0 km/h N-NO 15,6 C 26,9 C 0,0 km/h
07.06.2015 20:00 24,5 C 55 % 1020,1 hPa 0,0 l/m 0,0 km/h N-NO 14,9 C 24,5 C 0,0 km/h
07.06.2015 21:00 22,8 C 59 % 1020,2 hPa 0,0 l/m 7,1 km/h N-NO 14,4 C 22,6 C 4,0 km/h
07.06.2015 22:00 21,0 C 65 % 1019,7 hPa 0,0 l/m 0,0 km/h W 14,2 C 21,0 C 0,0 km/h
07.06.2015 23:00 20,4 C 66 % 1020,9 hPa 0,0 l/m 14,9 km/h O-SO 13,8 C 17,8 C 8,3 km/h
Min-Datum _ 04.06.15 03.06.15 01.06.15 - 01.06.15 - 04.06.15 04.06.15 01.06.15
_ Min-Zeit 05:51 17:51 01:51 - 00:51 - 05:51 05:51 00:51
Minimum _ 10,3 C 25 % 1013,1 hPa - 0,0 km/h - 7,7 C 10,3 C 0,0 km/h
Max-Datum _ 05.06.15 01.06.15 04.06.15 06.06.15 02.06.15 - 06.06.15 05.06.15 02.06.15
_ Max-Zeit 17:51 23:51 06:51 02:51 11:51 - 08:51 17:51 11:51
Maximum _ 39,8 C 84 % 1023,2 hPa 6,2 l/m 25,3 km/h
NW
- 21,2 C 39,8 C 14,0 km/h
NW
Durchschnitt _ 22,6 C 62 % 1018,3 hPa #6,2 l/m 3,3 km/h N-NO 14,2 C 22,3 C 1,8 km/h
www.sexauwetter.de